Canso, Canada
Current Conditions -  °F | °C
As of 2:00 AM on Friday 28 Nov 2014 (Local Time) from CYPD Reporting Station
Light Snow Light Snow  
Wind Chill: -5°   Ceiling: 1500
Heat Index: -1°   Visibility: 8mi
Dew Point: -3°   Wind: 7mph
Humidity: 86%   Direction: 310°NW
Pressure: 29.88"   Gusts: NA
Location:  45.34°N, 61°W
Report Text: CYPD 280600Z AUTO 31006KT 290V350 8SM -SN BKN015 OVC023 M01/M03 A2988 RMK PRESRR SLP122
Loading
Personal Weather Stations






























Interactive Weather Map New forecast layout! Learn more

10-Day Weather Forecast

Advertisements
Track Severe Weather on mobile